createdAt,value
2022-11-16T00:01:17.781Z,27.05
2022-11-16T00:03:44.379Z,29.25
2022-11-16T00:06:11.365Z,28.65
2022-11-16T00:08:41.189Z,28.67
2022-11-16T00:11:15.248Z,27.75
2022-11-16T00:13:42.880Z,29.15
2022-11-16T00:16:15.088Z,28.17
2022-11-16T00:18:41.784Z,29.80
2022-11-16T00:21:08.322Z,29.27
2022-11-16T00:23:38.699Z,29.42
2022-11-16T00:26:06.306Z,30.20
2022-11-16T00:28:33.100Z,30.48
2022-11-16T00:31:01.001Z,31.27
2022-11-16T00:33:27.672Z,29.60
2022-11-16T00:35:54.216Z,30.70
2022-11-16T00:38:20.786Z,31.05
2022-11-16T00:40:47.316Z,31.23
2022-11-16T00:43:13.841Z,30.15
2022-11-16T00:45:43.216Z,30.00
2022-11-16T00:48:10.572Z,31.30
2022-11-16T00:50:37.205Z,31.45
2022-11-16T00:53:04.487Z,31.55
2022-11-16T00:55:31.013Z,32.35
2022-11-16T00:57:57.556Z,29.98
2022-11-16T01:00:24.082Z,31.20
2022-11-16T01:02:52.509Z,31.58
2022-11-16T01:05:19.048Z,30.92
2022-11-16T01:07:45.591Z,30.80
2022-11-16T01:10:13.428Z,30.62
2022-11-16T01:15:09.031Z,29.90
2022-11-16T01:17:39.021Z,28.95
2022-11-16T01:20:06.793Z,29.25
2022-11-16T01:27:29.109Z,28.52
2022-11-16T01:29:55.658Z,30.23
2022-11-16T01:32:22.189Z,29.27
2022-11-16T01:34:49.547Z,29.30
2022-11-16T01:37:16.171Z,29.85
2022-11-16T01:39:42.729Z,27.08
2022-11-16T01:42:23.802Z,28.17
2022-11-16T01:44:50.180Z,28.25
2022-11-16T01:47:17.347Z,27.92
2022-11-16T01:49:48.591Z,29.10
2022-11-16T01:52:18.334Z,29.15
2022-11-16T01:54:45.872Z,29.30
2022-11-16T01:57:14.818Z,27.77
2022-11-16T01:59:41.357Z,26.23
2022-11-16T02:02:07.886Z,27.15
2022-11-16T02:04:34.453Z,26.33
2022-11-16T02:07:16.211Z,27.08
2022-11-16T02:09:54.922Z,26.17
2022-11-16T02:12:30.037Z,26.12
2022-11-16T02:15:15.217Z,25.40
2022-11-16T02:17:56.840Z,25.10
2022-11-16T02:20:35.429Z,27.10
2022-11-16T02:23:32.811Z,24.52
2022-11-16T02:26:11.455Z,24.20
2022-11-16T02:28:48.393Z,23.92
2022-11-16T02:31:21.223Z,24.92
2022-11-16T02:33:47.777Z,23.35
2022-11-16T02:36:17.526Z,24.95
2022-11-16T02:38:47.881Z,24.02
2022-11-16T02:41:16.467Z,25.10
2022-11-16T02:43:44.714Z,24.35
2022-11-16T02:46:22.853Z,23.83
2022-11-16T02:48:54.049Z,22.23
2022-11-16T02:51:20.604Z,22.90
2022-11-16T02:54:08.530Z,23.90
2022-11-16T02:56:48.702Z,22.58
2022-11-16T02:59:17.675Z,23.12
2022-11-16T03:01:48.427Z,23.25
2022-11-16T03:04:36.776Z,22.73
2022-11-16T03:07:04.612Z,22.45
2022-11-16T03:09:31.759Z,24.00
2022-11-16T03:11:59.787Z,22.13
2022-11-16T03:14:44.879Z,22.42
2022-11-16T03:17:32.672Z,23.10
2022-11-16T03:20:16.231Z,22.55
2022-11-16T03:22:44.574Z,22.40
2022-11-16T03:25:18.218Z,21.33
2022-11-16T03:27:53.886Z,22.48
2022-11-16T03:30:24.684Z,22.62
2022-11-16T03:32:57.162Z,21.87
2022-11-16T03:35:28.133Z,20.42
2022-11-16T03:37:56.281Z,21.65
2022-11-16T03:40:22.839Z,22.75
2022-11-16T03:42:52.128Z,21.42
2022-11-16T03:45:18.729Z,21.00
2022-11-16T03:47:45.485Z,23.17
2022-11-16T03:50:12.107Z,22.33
2022-11-16T03:52:38.649Z,22.45
2022-11-16T03:55:05.474Z,22.05
2022-11-16T03:57:31.997Z,23.08
2022-11-16T03:59:58.549Z,21.08
2022-11-16T04:02:25.140Z,22.65
2022-11-16T04:05:10.191Z,21.98
2022-11-16T04:07:55.783Z,21.50
2022-11-16T04:10:40.828Z,22.60
2022-11-16T04:13:28.946Z,21.02
2022-11-16T04:16:14.066Z,22.25
2022-11-16T04:18:58.970Z,20.65
2022-11-16T04:21:46.073Z,21.25
2022-11-16T04:24:14.691Z,22.20
2022-11-16T04:27:05.495Z,23.30
2022-11-16T04:29:32.002Z,22.00
2022-11-16T04:32:17.143Z,23.20
2022-11-16T04:35:02.547Z,22.87
2022-11-16T04:37:47.734Z,23.27
2022-11-16T04:40:15.757Z,24.42
2022-11-16T04:42:42.332Z,23.98
2022-11-16T04:45:28.022Z,23.83
2022-11-16T04:47:54.558Z,25.52
2022-11-16T04:50:21.091Z,24.08
2022-11-16T04:52:47.641Z,24.12
2022-11-16T04:55:14.190Z,25.05
2022-11-16T04:57:40.715Z,25.05
2022-11-16T05:00:07.718Z,24.45
2022-11-16T05:02:34.260Z,24.08
2022-11-16T05:05:00.791Z,23.35
2022-11-16T05:07:27.390Z,23.25
2022-11-16T05:09:53.998Z,24.77
2022-11-16T05:12:24.886Z,23.80
2022-11-16T05:14:51.639Z,25.15
2022-11-16T05:17:18.346Z,25.88
2022-11-16T05:20:03.632Z,24.58
2022-11-16T05:22:30.175Z,25.25
2022-11-16T05:24:56.721Z,25.70
2022-11-16T05:27:23.720Z,25.67
2022-11-16T05:29:50.354Z,27.92
2022-11-16T05:32:16.968Z,28.25
2022-11-16T05:34:43.537Z,26.65
2022-11-16T05:37:10.187Z,26.60
2022-11-16T05:39:36.744Z,26.33
2022-11-16T05:42:03.358Z,27.52
2022-11-16T05:44:29.915Z,27.65
2022-11-16T05:46:56.446Z,26.12
2022-11-16T05:49:23.012Z,27.27
2022-11-16T05:51:49.542Z,25.42
2022-11-16T05:54:20.743Z,28.45
2022-11-16T05:56:47.947Z,26.70
2022-11-16T05:59:18.904Z,27.37
2022-11-16T06:01:45.493Z,27.42
2022-11-16T06:04:12.073Z,27.50
2022-11-16T06:06:38.617Z,27.62
2022-11-16T06:09:05.159Z,27.85
2022-11-16T06:11:35.852Z,28.12
2022-11-16T06:14:02.714Z,28.33
2022-11-16T06:16:29.258Z,26.92
2022-11-16T06:18:55.777Z,30.48
2022-11-16T06:21:22.308Z,29.80
2022-11-16T06:23:48.844Z,29.30
2022-11-16T06:26:15.396Z,28.87
2022-11-16T06:28:41.977Z,28.73
2022-11-16T06:31:08.638Z,29.10
2022-11-16T06:33:35.221Z,28.60
2022-11-16T06:36:01.774Z,27.60
2022-11-16T06:38:28.387Z,29.10
2022-11-16T06:40:56.338Z,30.08
2022-11-16T06:43:23.294Z,26.98
2022-11-16T06:45:50.780Z,28.37
2022-11-16T06:48:17.792Z,28.67
2022-11-16T06:50:44.445Z,30.88
2022-11-16T06:53:11.886Z,31.42
2022-11-16T06:55:38.461Z,31.98
2022-11-16T06:58:05.040Z,30.37
2022-11-16T07:00:31.726Z,31.40
2022-11-16T07:02:58.703Z,30.08
2022-11-16T07:05:26.640Z,29.45
2022-11-16T07:07:55.055Z,31.75
2022-11-16T07:10:22.172Z,32.47
2022-11-16T07:12:48.821Z,32.50
2022-11-16T07:15:15.477Z,30.75
2022-11-16T07:17:42.934Z,31.52
2022-11-16T07:20:10.283Z,31.55
2022-11-16T07:22:36.873Z,30.55
2022-11-16T07:25:03.769Z,32.97
2022-11-16T07:27:31.563Z,32.97
2022-11-16T07:32:26.605Z,30.23
2022-11-16T07:34:54.599Z,30.75
2022-11-16T07:37:21.291Z,29.52
2022-11-16T07:39:47.857Z,32.80
2022-11-16T07:42:14.651Z,28.02
2022-11-16T07:44:41.440Z,30.95
2022-11-16T07:47:09.887Z,28.98
2022-11-16T07:49:36.470Z,29.40
2022-11-16T07:52:03.643Z,30.02
2022-11-16T07:54:30.262Z,28.90
2022-11-16T07:56:58.038Z,31.12
2022-11-16T08:01:51.116Z,29.42
2022-11-16T08:04:17.800Z,29.52
2022-11-16T08:06:44.751Z,30.55
2022-11-16T08:09:12.572Z,31.37
2022-11-16T08:14:05.725Z,29.33
2022-11-16T08:16:33.454Z,32.20
2022-11-16T08:21:33.574Z,29.48
2022-11-16T08:24:06.570Z,30.48
2022-11-16T08:26:33.176Z,29.85
2022-11-16T08:29:06.560Z,30.75
2022-11-16T08:31:33.192Z,28.85
2022-11-16T08:34:06.599Z,32.00
2022-11-16T08:36:34.462Z,28.92
2022-11-16T08:39:07.528Z,30.58
2022-11-16T08:41:35.978Z,29.75
2022-11-16T08:44:09.575Z,30.17
2022-11-16T08:46:36.300Z,29.42
2022-11-16T08:49:09.531Z,29.50
2022-11-16T08:51:36.145Z,30.30
2022-11-16T08:54:16.594Z,29.10
2022-11-16T08:56:45.245Z,30.15
2022-11-16T08:59:19.775Z,29.58
2022-11-16T09:01:47.527Z,29.67
2022-11-16T09:06:48.642Z,27.13
2022-11-16T09:09:21.721Z,30.88
2022-11-16T09:11:48.862Z,28.20
2022-11-16T09:14:21.581Z,29.65
2022-11-16T09:16:48.174Z,30.15
2022-11-16T09:19:21.804Z,30.15
2022-11-16T09:21:48.419Z,31.27
2022-11-16T09:24:21.577Z,30.67
2022-11-16T09:26:48.276Z,32.38
2022-11-16T09:29:22.609Z,30.83
2022-11-16T09:31:49.193Z,32.05
2022-11-16T09:34:22.687Z,31.23
2022-11-16T09:36:49.638Z,31.10
2022-11-16T09:39:31.501Z,30.20
2022-11-16T09:42:00.675Z,29.60
2022-11-16T09:44:46.757Z,29.58
2022-11-16T09:47:32.663Z,31.05
2022-11-16T09:50:03.877Z,30.40
2022-11-16T09:52:42.063Z,29.20
2022-11-16T09:55:40.916Z,30.37
2022-11-16T09:58:40.176Z,28.33
2022-11-16T10:01:28.370Z,29.73
2022-11-16T10:04:06.395Z,28.20
2022-11-16T10:06:54.524Z,30.25
2022-11-16T10:09:21.280Z,28.53
2022-11-16T10:11:53.895Z,28.55
2022-11-16T10:14:31.403Z,27.77
2022-11-16T10:17:25.650Z,27.97
2022-11-16T10:19:57.275Z,28.75
2022-11-16T10:22:42.020Z,27.80
2022-11-16T10:25:26.093Z,28.40
2022-11-16T10:28:02.609Z,27.17
2022-11-16T10:30:29.276Z,26.65
2022-11-16T10:33:11.145Z,27.87
2022-11-16T10:35:42.497Z,27.02
2022-11-16T10:38:15.755Z,26.00
2022-11-16T10:40:42.337Z,26.75
2022-11-16T10:43:17.755Z,27.60
2022-11-16T10:45:50.516Z,26.85
2022-11-16T10:48:29.099Z,26.60
2022-11-16T10:50:55.736Z,26.80
2022-11-16T10:53:36.299Z,24.98
2022-11-16T10:56:17.691Z,25.83
2022-11-16T10:58:52.610Z,26.05
2022-11-16T11:01:41.005Z,24.83
2022-11-16T11:04:24.563Z,24.27
2022-11-16T11:07:01.977Z,23.77
2022-11-16T11:09:32.066Z,23.70
2022-11-16T11:12:17.744Z,23.25
2022-11-16T11:15:12.081Z,25.27
2022-11-16T11:17:38.589Z,25.08
2022-11-16T11:20:07.161Z,24.23
2022-11-16T11:22:35.471Z,25.75
2022-11-16T11:25:03.269Z,25.12
2022-11-16T11:29:59.293Z,22.10
2022-11-16T11:32:34.718Z,24.42
2022-11-16T11:35:01.692Z,24.08
2022-11-16T11:37:35.365Z,24.35
2022-11-16T11:40:22.848Z,23.60
2022-11-16T11:42:57.941Z,23.58
2022-11-16T11:45:59.092Z,24.77
2022-11-16T11:48:48.938Z,24.05
2022-11-16T11:51:33.485Z,23.85
2022-11-16T11:54:00.944Z,22.55
2022-11-16T11:56:28.242Z,23.98
2022-11-16T11:58:55.141Z,25.12
2022-11-16T12:02:02.879Z,24.23
2022-11-16T12:04:38.712Z,24.40
2022-11-16T12:07:27.352Z,24.37
2022-11-16T12:10:12.355Z,23.38
2022-11-16T12:13:03.921Z,25.80
2022-11-16T12:15:39.714Z,24.55
2022-11-16T12:18:18.050Z,24.52
2022-11-16T12:21:06.511Z,23.92
2022-11-16T12:23:51.671Z,24.73
2022-11-16T12:26:33.526Z,23.62
2022-11-16T12:29:42.253Z,23.80
2022-11-16T12:32:47.637Z,23.25
2022-11-16T12:35:40.856Z,23.33
2022-11-16T12:38:14.366Z,22.87
2022-11-16T12:41:05.865Z,23.15
2022-11-16T12:43:45.246Z,21.92
2022-11-16T12:46:31.444Z,23.92
2022-11-16T12:49:14.093Z,21.83
2022-11-16T12:52:05.514Z,22.35
2022-11-16T12:55:25.394Z,22.80
2022-11-16T12:58:08.664Z,24.48
2022-11-16T13:00:49.820Z,23.65
2022-11-16T13:03:20.410Z,24.73
2022-11-16T13:06:00.590Z,21.70
2022-11-16T13:08:54.988Z,21.70
2022-11-16T13:11:35.545Z,22.05
2022-11-16T13:14:07.037Z,20.67
2022-11-16T13:16:34.054Z,20.50
2022-11-16T13:19:00.894Z,20.50
2022-11-16T13:21:46.385Z,20.83
2022-11-16T13:24:32.189Z,21.10
2022-11-16T13:27:36.181Z,21.87
2022-11-16T13:30:47.753Z,21.20
2022-11-16T13:33:50.940Z,20.98
2022-11-16T13:36:45.638Z,21.85
2022-11-16T13:39:20.317Z,20.00
2022-11-16T13:41:52.134Z,20.90
2022-11-16T13:44:19.998Z,20.55
2022-11-16T13:47:05.549Z,19.87
2022-11-16T13:49:38.391Z,20.95
2022-11-16T13:52:35.443Z,19.10
2022-11-16T13:54:57.045Z,20.20
2022-11-16T13:57:34.104Z,19.42
2022-11-16T14:00:00.488Z,20.08
2022-11-16T14:02:36.660Z,19.45
2022-11-16T14:05:04.630Z,20.75
2022-11-16T14:07:47.156Z,19.12
2022-11-16T14:10:35.865Z,20.98
2022-11-16T14:13:04.414Z,19.12
2022-11-16T14:15:32.575Z,19.67
2022-11-16T14:18:09.394Z,19.67
2022-11-16T14:20:59.257Z,18.92
2022-11-16T14:23:45.600Z,20.23
2022-11-16T14:26:53.126Z,18.52
2022-11-16T14:29:49.590Z,18.25
2022-11-16T14:32:20.442Z,16.92
2022-11-16T14:34:48.160Z,16.40
2022-11-16T14:37:35.906Z,17.05
2022-11-16T14:40:18.674Z,17.85
2022-11-16T14:45:43.415Z,18.02
2022-11-16T14:48:17.908Z,15.63
2022-11-16T14:50:46.118Z,16.87
2022-11-16T14:53:15.445Z,17.15
2022-11-16T14:55:43.078Z,17.10
2022-11-16T14:58:10.635Z,16.75
2022-11-16T15:00:37.580Z,15.73
2022-11-16T15:03:04.416Z,17.40
2022-11-16T15:05:33.933Z,18.20
2022-11-16T15:08:00.502Z,16.40
2022-11-16T15:10:28.127Z,17.42
2022-11-16T15:12:55.380Z,17.65
2022-11-16T15:15:27.314Z,17.20
2022-11-16T15:17:59.953Z,18.10
2022-11-16T15:20:28.472Z,17.95
2022-11-16T15:22:57.244Z,16.62
2022-11-16T15:25:24.744Z,17.73
2022-11-16T15:27:51.293Z,18.27
2022-11-16T15:30:23.191Z,17.73
2022-11-16T15:32:51.128Z,16.90
2022-11-16T15:35:24.592Z,16.70
2022-11-16T15:38:01.198Z,17.58
2022-11-16T15:40:27.833Z,18.25
2022-11-16T15:42:54.421Z,17.98
2022-11-16T15:45:24.988Z,17.35
2022-11-16T15:47:55.360Z,15.90
2022-11-16T15:50:25.341Z,16.08
2022-11-16T15:52:56.076Z,17.35
2022-11-16T15:55:23.966Z,16.45
2022-11-16T15:57:59.329Z,17.10
2022-11-16T16:00:26.352Z,16.73
2022-11-16T16:02:56.844Z,17.87
2022-11-16T16:05:37.090Z,17.30
2022-11-16T16:08:04.300Z,16.30
2022-11-16T16:10:31.208Z,15.40
2022-11-16T16:13:02.171Z,17.33
2022-11-16T16:15:40.263Z,16.67
2022-11-16T16:18:14.213Z,17.35
2022-11-16T16:20:40.785Z,16.08
2022-11-16T16:23:13.165Z,16.50
2022-11-16T16:25:39.760Z,17.10
2022-11-16T16:28:06.343Z,16.87
2022-11-16T16:30:34.704Z,15.57
2022-11-16T16:33:02.244Z,15.90
2022-11-16T16:35:29.629Z,16.12
2022-11-16T16:37:58.018Z,16.77
2022-11-16T16:40:24.865Z,17.65
2022-11-16T16:42:53.227Z,17.50
2022-11-16T16:45:41.573Z,18.50
2022-11-16T16:48:12.607Z,18.85
2022-11-16T16:50:39.333Z,18.02
2022-11-16T16:53:05.987Z,17.65
2022-11-16T16:55:36.977Z,17.17
2022-11-16T16:58:04.176Z,17.02
2022-11-16T17:00:30.771Z,18.62
2022-11-16T17:02:58.493Z,18.42
2022-11-16T17:05:26.288Z,17.67
2022-11-16T17:10:22.879Z,16.35
2022-11-16T17:12:49.920Z,18.15
2022-11-16T17:15:19.307Z,16.65
2022-11-16T17:17:46.165Z,16.65
2022-11-16T17:20:13.334Z,17.85
2022-11-16T17:22:41.829Z,17.50
2022-11-16T17:25:09.156Z,18.67
2022-11-16T17:27:35.736Z,18.05
2022-11-16T17:30:02.265Z,16.05
2022-11-16T17:32:29.591Z,17.23
2022-11-16T17:34:56.145Z,16.40
2022-11-16T17:37:22.701Z,16.55
2022-11-16T17:39:49.237Z,16.90
2022-11-16T17:42:15.776Z,16.50
2022-11-16T17:44:42.331Z,15.38
2022-11-16T17:47:09.241Z,15.70
2022-11-16T17:49:35.779Z,15.40
2022-11-16T17:52:02.332Z,16.02
2022-11-16T17:54:28.909Z,15.85
2022-11-16T17:56:55.445Z,15.70
2022-11-16T17:59:27.968Z,15.15
2022-11-16T18:01:57.673Z,17.15
2022-11-16T18:04:24.489Z,16.17
2022-11-16T18:06:51.084Z,15.77
2022-11-16T18:09:18.734Z,17.42
2022-11-16T18:11:45.369Z,17.30
2022-11-16T18:14:11.902Z,17.02
2022-11-16T18:16:41.038Z,17.85
2022-11-16T18:19:07.647Z,16.90
2022-11-16T18:21:40.529Z,17.00
2022-11-16T18:24:07.344Z,16.48
2022-11-16T18:26:33.920Z,17.42
2022-11-16T18:29:00.507Z,17.27
2022-11-16T18:31:27.076Z,17.15
2022-11-16T18:33:53.715Z,18.35
2022-11-16T18:36:20.653Z,18.40
2022-11-16T18:38:47.422Z,17.13
2022-11-16T18:41:16.399Z,16.48
2022-11-16T18:43:49.239Z,16.40
2022-11-16T18:46:16.431Z,15.32
2022-11-16T18:48:43.456Z,16.23
2022-11-16T18:51:10.581Z,16.92
2022-11-16T18:53:37.512Z,15.43
2022-11-16T18:56:04.843Z,15.35
2022-11-16T19:01:18.549Z,15.07
2022-11-16T19:03:45.132Z,14.02
2022-11-16T19:06:11.846Z,14.80
2022-11-16T19:08:39.227Z,15.50
2022-11-16T19:11:06.328Z,15.25
2022-11-16T19:13:33.763Z,14.20
2022-11-16T19:16:00.564Z,11.82
2022-11-16T19:18:27.330Z,14.00
2022-11-16T19:21:03.289Z,12.68
2022-11-16T19:23:29.836Z,12.65
2022-11-16T19:26:01.056Z,12.37
2022-11-16T19:28:27.628Z,12.37
2022-11-16T19:30:54.218Z,10.77
2022-11-16T19:33:20.763Z,11.12
2022-11-16T19:35:47.292Z,10.88
2022-11-16T19:38:13.833Z,11.43
2022-11-16T19:40:40.395Z,11.23
2022-11-16T19:43:06.954Z,11.45
2022-11-16T19:45:33.485Z,11.70
2022-11-16T19:48:00.010Z,11.45
2022-11-16T19:50:26.523Z,12.30
2022-11-16T19:52:53.061Z,11.55
2022-11-16T19:55:19.618Z,12.02
2022-11-16T19:57:46.191Z,11.55
2022-11-16T20:00:13.165Z,12.07
2022-11-16T20:02:39.738Z,11.18
2022-11-16T20:05:06.714Z,12.05
2022-11-16T20:07:38.043Z,12.17
2022-11-16T20:10:07.868Z,11.15
2022-11-16T20:12:34.431Z,11.90
2022-11-16T20:15:02.838Z,12.15
2022-11-16T20:17:29.368Z,12.13
2022-11-16T20:19:55.933Z,10.90
2022-11-16T20:22:22.478Z,12.52
2022-11-16T20:24:49.010Z,13.27
2022-11-16T20:27:15.550Z,12.50
2022-11-16T20:29:42.478Z,12.90
2022-11-16T20:32:08.991Z,13.35
2022-11-16T20:34:35.758Z,12.63
2022-11-16T20:37:02.284Z,12.50
2022-11-16T20:39:28.896Z,12.48
2022-11-16T20:41:55.442Z,13.05
2022-11-16T20:44:22.514Z,13.27
2022-11-16T20:46:50.549Z,12.10
2022-11-16T20:51:43.504Z,13.02
2022-11-16T20:54:10.074Z,13.82
2022-11-16T20:56:36.600Z,14.30
2022-11-16T20:59:03.391Z,13.13
2022-11-16T21:01:31.877Z,14.77
2022-11-16T21:04:00.007Z,13.93
2022-11-16T21:06:27.110Z,13.52
2022-11-16T21:08:53.890Z,14.15
2022-11-16T21:11:22.735Z,14.13
2022-11-16T21:14:07.595Z,14.60
2022-11-16T21:16:34.360Z,12.52
2022-11-16T21:19:01.252Z,13.93
2022-11-16T21:21:27.824Z,12.57
2022-11-16T21:23:55.048Z,11.40
2022-11-16T21:26:23.411Z,12.30
2022-11-16T21:28:50.067Z,12.45
2022-11-16T21:31:18.086Z,11.10
2022-11-16T21:33:45.013Z,11.43
2022-11-16T21:36:12.939Z,10.97
2022-11-16T21:38:39.471Z,10.88
2022-11-16T21:41:06.430Z,11.00
2022-11-16T21:43:35.391Z,10.37
2022-11-16T21:46:10.263Z,10.40
2022-11-16T21:48:36.870Z,11.52
2022-11-16T21:51:05.055Z,9.80
2022-11-16T21:53:31.792Z,10.68
2022-11-16T21:55:58.633Z,11.05
2022-11-16T21:58:25.276Z,11.23
2022-11-16T22:00:58.728Z,11.25
2022-11-16T22:03:26.170Z,11.40
2022-11-16T22:06:15.404Z,12.52
2022-11-16T22:08:41.921Z,13.90
2022-11-16T22:11:08.914Z,13.50
2022-11-16T22:13:36.102Z,14.70
2022-11-16T22:16:12.899Z,14.57
2022-11-16T22:18:39.540Z,13.80
2022-11-16T22:21:06.175Z,14.85
2022-11-16T22:23:32.717Z,14.20
2022-11-16T22:26:09.518Z,13.30
2022-11-16T22:28:36.096Z,15.27
2022-11-16T22:31:07.083Z,14.98
2022-11-16T22:33:34.121Z,15.43
2022-11-16T22:36:01.081Z,14.38
2022-11-16T22:38:27.628Z,14.45
2022-11-16T22:40:55.449Z,14.60
2022-11-16T22:45:49.084Z,12.70
2022-11-16T22:48:15.637Z,13.38
2022-11-16T22:50:42.332Z,14.05
2022-11-16T22:53:09.654Z,13.32
2022-11-16T22:55:38.985Z,13.73
2022-11-16T22:58:05.663Z,14.45
2022-11-16T23:00:37.476Z,13.05
2022-11-16T23:03:07.481Z,15.18
2022-11-16T23:05:34.081Z,13.93
2022-11-16T23:08:00.638Z,13.80
2022-11-16T23:10:27.162Z,14.38
2022-11-16T23:13:12.343Z,15.13
2022-11-16T23:15:50.531Z,14.55
2022-11-16T23:18:17.614Z,14.57
2022-11-16T23:21:02.599Z,13.38
2022-11-16T23:23:47.522Z,14.02
2022-11-16T23:26:38.240Z,13.32
2022-11-16T23:29:05.517Z,13.93
2022-11-16T23:31:32.051Z,14.10
2022-11-16T23:33:58.617Z,15.07
2022-11-16T23:36:25.135Z,13.35
2022-11-16T23:38:51.931Z,15.25
2022-11-16T23:41:37.009Z,14.50
2022-11-16T23:44:03.645Z,13.60
2022-11-16T23:46:31.331Z,13.80
2022-11-16T23:48:57.897Z,15.25
2022-11-16T23:51:24.579Z,13.75
2022-11-16T23:53:52.041Z,15.27
2022-11-16T23:56:19.417Z,14.32
2022-11-16T23:58:45.982Z,14.07
